sensor_id;sensor_type;location;lat;lon;timestamp;pressure;altitude;pressure_sealevel;temperature;humidity
9899;BME280;4988;49.238;6.698;2023-07-24T00:00:18;98372.59;;;19.26;83.29
9899;BME280;4988;49.238;6.698;2023-07-24T00:02:44;98373.75;;;19.14;84.08
9899;BME280;4988;49.238;6.698;2023-07-24T00:05:09;98365.25;;;19.09;84.60
9899;BME280;4988;49.238;6.698;2023-07-24T00:07:35;98363.53;;;19.08;84.69
9899;BME280;4988;49.238;6.698;2023-07-24T00:10:00;98383.44;;;18.87;85.00
9899;BME280;4988;49.238;6.698;2023-07-24T00:12:26;98366.53;;;18.65;86.72
9899;BME280;4988;49.238;6.698;2023-07-24T00:14:52;98365.41;;;18.78;86.11
9899;BME280;4988;49.238;6.698;2023-07-24T00:17:18;98367.25;;;18.77;86.11
9899;BME280;4988;49.238;6.698;2023-07-24T00:19:43;98375.47;;;18.86;85.63
9899;BME280;4988;49.238;6.698;2023-07-24T00:22:08;98371.63;;;18.78;85.92
9899;BME280;4988;49.238;6.698;2023-07-24T00:24:34;98340.28;;;18.68;86.47
9899;BME280;4988;49.238;6.698;2023-07-24T00:26:59;98313.59;;;18.74;86.35
9899;BME280;4988;49.238;6.698;2023-07-24T00:29:24;98278.97;;;18.79;86.16
9899;BME280;4988;49.238;6.698;2023-07-24T00:31:50;98267.91;;;18.83;85.85
9899;BME280;4988;49.238;6.698;2023-07-24T00:34:15;98258.50;;;18.87;85.17
9899;BME280;4988;49.238;6.698;2023-07-24T00:36:40;98270.16;;;18.87;85.50
9899;BME280;4988;49.238;6.698;2023-07-24T00:39:06;98261.34;;;18.85;85.76
9899;BME280;4988;49.238;6.698;2023-07-24T00:41:31;98264.47;;;18.90;84.98
9899;BME280;4988;49.238;6.698;2023-07-24T00:43:56;98276.25;;;18.89;85.98
9899;BME280;4988;49.238;6.698;2023-07-24T00:46:22;98287.91;;;18.80;85.61
9899;BME280;4988;49.238;6.698;2023-07-24T00:48:48;98304.25;;;18.59;87.34
9899;BME280;4988;49.238;6.698;2023-07-24T00:51:13;98317.16;;;18.55;87.62
9899;BME280;4988;49.238;6.698;2023-07-24T00:53:39;98317.84;;;18.38;88.94
9899;BME280;4988;49.238;6.698;2023-07-24T00:56:04;98309.75;;;18.18;89.88
9899;BME280;4988;49.238;6.698;2023-07-24T00:58:30;98310.75;;;18.07;91.46
9899;BME280;4988;49.238;6.698;2023-07-24T01:00:56;98304.34;;;17.98;92.25
9899;BME280;4988;49.238;6.698;2023-07-24T01:03:23;98309.16;;;17.95;92.42
9899;BME280;4988;49.238;6.698;2023-07-24T01:05:56;98307.53;;;17.92;92.42
9899;BME280;4988;49.238;6.698;2023-07-24T01:08:21;98307.06;;;17.98;92.02
9899;BME280;4988;49.238;6.698;2023-07-24T01:10:46;98311.59;;;18.08;91.01
9899;BME280;4988;49.238;6.698;2023-07-24T01:13:21;98306.78;;;18.11;90.42
9899;BME280;4988;49.238;6.698;2023-07-24T01:15:56;98307.63;;;18.12;89.91
9899;BME280;4988;49.238;6.698;2023-07-24T01:18:24;98298.53;;;18.13;89.90
9899;BME280;4988;49.238;6.698;2023-07-24T01:20:51;98298.28;;;18.06;89.95
9899;BME280;4988;49.238;6.698;2023-07-24T01:26:06;98297.06;;;17.89;90.46
9899;BME280;4988;49.238;6.698;2023-07-24T01:28:32;98308.50;;;17.72;92.42
9899;BME280;4988;49.238;6.698;2023-07-24T01:30:57;98319.88;;;17.54;94.26
9899;BME280;4988;49.238;6.698;2023-07-24T01:33:23;98317.31;;;17.43;95.04
9899;BME280;4988;49.238;6.698;2023-07-24T01:35:51;98323.81;;;17.40;95.35
9899;BME280;4988;49.238;6.698;2023-07-24T01:38:18;98316.84;;;17.38;95.46
9899;BME280;4988;49.238;6.698;2023-07-24T01:40:44;98320.41;;;17.38;96.05
9899;BME280;4988;49.238;6.698;2023-07-24T01:43:10;98311.13;;;17.52;94.97
9899;BME280;4988;49.238;6.698;2023-07-24T01:45:35;98299.69;;;17.69;94.15
9899;BME280;4988;49.238;6.698;2023-07-24T01:48:03;98314.34;;;17.87;92.88
9899;BME280;4988;49.238;6.698;2023-07-24T01:50:29;98311.41;;;17.99;92.17
9899;BME280;4988;49.238;6.698;2023-07-24T01:52:54;98305.63;;;18.14;90.86
9899;BME280;4988;49.238;6.698;2023-07-24T01:55:19;98307.06;;;18.18;90.34
9899;BME280;4988;49.238;6.698;2023-07-24T01:57:45;98309.47;;;18.21;89.79
9899;BME280;4988;49.238;6.698;2023-07-24T02:00:10;98307.50;;;18.23;89.74
9899;BME280;4988;49.238;6.698;2023-07-24T02:02:36;98309.31;;;18.13;89.33
9899;BME280;4988;49.238;6.698;2023-07-24T02:05:01;98298.44;;;18.14;90.23
9899;BME280;4988;49.238;6.698;2023-07-24T02:07:26;98288.50;;;18.15;90.09
9899;BME280;4988;49.238;6.698;2023-07-24T02:09:52;98279.00;;;18.21;90.30
9899;BME280;4988;49.238;6.698;2023-07-24T02:12:17;98266.38;;;18.31;89.38
9899;BME280;4988;49.238;6.698;2023-07-24T02:14:42;98254.88;;;18.39;88.22
9899;BME280;4988;49.238;6.698;2023-07-24T02:17:08;98237.88;;;18.38;88.68
9899;BME280;4988;49.238;6.698;2023-07-24T02:19:33;98207.91;;;18.51;87.67
9899;BME280;4988;49.238;6.698;2023-07-24T02:21:58;98190.59;;;18.54;87.25
9899;BME280;4988;49.238;6.698;2023-07-24T02:24:24;98168.91;;;18.55;87.19
9899;BME280;4988;49.238;6.698;2023-07-24T02:26:49;98176.00;;;18.46;87.58
9899;BME280;4988;49.238;6.698;2023-07-24T02:29:14;98180.72;;;18.44;88.09
9899;BME280;4988;49.238;6.698;2023-07-24T02:31:40;98189.34;;;18.48;87.58
9899;BME280;4988;49.238;6.698;2023-07-24T02:34:05;98197.03;;;18.53;87.63
9899;BME280;4988;49.238;6.698;2023-07-24T02:36:30;98182.50;;;18.63;86.96
9899;BME280;4988;49.238;6.698;2023-07-24T02:38:56;98170.00;;;18.62;87.04
9899;BME280;4988;49.238;6.698;2023-07-24T02:41:21;98186.06;;;18.64;87.59
9899;BME280;4988;49.238;6.698;2023-07-24T02:43:46;98184.19;;;18.64;87.58
9899;BME280;4988;49.238;6.698;2023-07-24T02:46:11;98195.88;;;18.55;88.29
9899;BME280;4988;49.238;6.698;2023-07-24T02:48:37;98194.78;;;18.28;91.71
9899;BME280;4988;49.238;6.698;2023-07-24T02:51:02;98206.13;;;18.03;94.38
9899;BME280;4988;49.238;6.698;2023-07-24T02:53:28;98199.97;;;17.81;96.24
9899;BME280;4988;49.238;6.698;2023-07-24T02:55:53;98201.47;;;17.54;98.39
9899;BME280;4988;49.238;6.698;2023-07-24T02:58:18;98213.31;;;17.32;100.00
9899;BME280;4988;49.238;6.698;2023-07-24T03:00:43;98214.84;;;17.15;100.00
9899;BME280;4988;49.238;6.698;2023-07-24T03:03:09;98213.25;;;17.02;100.00
9899;BME280;4988;49.238;6.698;2023-07-24T03:05:34;98207.56;;;17.06;100.00
9899;BME280;4988;49.238;6.698;2023-07-24T03:08:00;98207.19;;;17.10;100.00
9899;BME280;4988;49.238;6.698;2023-07-24T03:10:25;98205.91;;;17.14;100.00
9899;BME280;4988;49.238;6.698;2023-07-24T03:12:50;98194.75;;;17.19;100.00
9899;BME280;4988;49.238;6.698;2023-07-24T03:15:16;98212.16;;;17.15;100.00
9899;BME280;4988;49.238;6.698;2023-07-24T03:17:41;98216.22;;;17.09;100.00
9899;BME280;4988;49.238;6.698;2023-07-24T03:20:15;98206.72;;;17.05;100.00
9899;BME280;4988;49.238;6.698;2023-07-24T03:22:41;98202.00;;;17.28;100.00
9899;BME280;4988;49.238;6.698;2023-07-24T03:25:07;98201.31;;;17.36;99.82
9899;BME280;4988;49.238;6.698;2023-07-24T03:27:32;98192.13;;;17.39;99.57
9899;BME280;4988;49.238;6.698;2023-07-24T03:29:58;98199.22;;;17.40;99.30
9899;BME280;4988;49.238;6.698;2023-07-24T03:32:23;98201.75;;;17.41;99.71
9899;BME280;4988;49.238;6.698;2023-07-24T03:34:48;98199.06;;;17.41;99.41
9899;BME280;4988;49.238;6.698;2023-07-24T03:37:14;98198.34;;;17.39;99.07
9899;BME280;4988;49.238;6.698;2023-07-24T03:39:39;98196.78;;;17.36;99.89
9899;BME280;4988;49.238;6.698;2023-07-24T03:42:04;98194.38;;;17.33;99.83
9899;BME280;4988;49.238;6.698;2023-07-24T03:44:30;98198.06;;;17.32;100.00
9899;BME280;4988;49.238;6.698;2023-07-24T03:46:55;98199.19;;;17.30;100.00
9899;BME280;4988;49.238;6.698;2023-07-24T03:49:20;98199.19;;;17.30;100.00
9899;BME280;4988;49.238;6.698;2023-07-24T03:51:47;98193.41;;;17.34;100.00
9899;BME280;4988;49.238;6.698;2023-07-24T03:54:12;98214.75;;;17.26;100.00
9899;BME280;4988;49.238;6.698;2023-07-24T03:56:38;98218.91;;;17.09;100.00
9899;BME280;4988;49.238;6.698;2023-07-24T03:59:05;98219.16;;;16.96;100.00
9899;BME280;4988;49.238;6.698;2023-07-24T04:01:30;98221.34;;;16.91;100.00
9899;BME280;4988;49.238;6.698;2023-07-24T04:03:56;98199.31;;;16.97;100.00
9899;BME280;4988;49.238;6.698;2023-07-24T04:06:21;98184.97;;;17.18;100.00
9899;BME280;4988;49.238;6.698;2023-07-24T04:08:47;98169.72;;;17.28;100.00
9899;BME280;4988;49.238;6.698;2023-07-24T04:11:12;98182.75;;;17.33;100.00
9899;BME280;4988;49.238;6.698;2023-07-24T04:13:37;98186.97;;;17.26;100.00
9899;BME280;4988;49.238;6.698;2023-07-24T04:16:03;98202.38;;;17.14;100.00
9899;BME280;4988;49.238;6.698;2023-07-24T04:18:28;98211.25;;;17.04;100.00
9899;BME280;4988;49.238;6.698;2023-07-24T04:20:55;98207.97;;;17.01;100.00
9899;BME280;4988;49.238;6.698;2023-07-24T04:23:20;98206.81;;;16.94;100.00
9899;BME280;4988;49.238;6.698;2023-07-24T04:25:46;98202.66;;;16.89;100.00
9899;BME280;4988;49.238;6.698;2023-07-24T04:28:11;98207.72;;;16.83;100.00
9899;BME280;4988;49.238;6.698;2023-07-24T04:30:36;98198.94;;;16.81;100.00
9899;BME280;4988;49.238;6.698;2023-07-24T04:33:02;98206.16;;;16.80;100.00
9899;BME280;4988;49.238;6.698;2023-07-24T04:35:27;98203.34;;;16.82;100.00
9899;BME280;4988;49.238;6.698;2023-07-24T04:37:52;98206.09;;;16.92;100.00
9899;BME280;4988;49.238;6.698;2023-07-24T04:40:18;98205.31;;;17.11;100.00
9899;BME280;4988;49.238;6.698;2023-07-24T04:42:44;98184.00;;;17.19;100.00
9899;BME280;4988;49.238;6.698;2023-07-24T04:45:09;98178.53;;;17.40;100.00
9899;BME280;4988;49.238;6.698;2023-07-24T04:47:35;98183.66;;;17.53;100.00
9899;BME280;4988;49.238;6.698;2023-07-24T04:50:02;98177.44;;;17.62;100.00
9899;BME280;4988;49.238;6.698;2023-07-24T04:52:27;98182.97;;;17.71;99.87
9899;BME280;4988;49.238;6.698;2023-07-24T04:54:52;98185.53;;;17.82;99.35
9899;BME280;4988;49.238;6.698;2023-07-24T04:57:18;98179.31;;;17.81;99.15
9899;BME280;4988;49.238;6.698;2023-07-24T04:59:43;98171.34;;;17.90;99.60
9899;BME280;4988;49.238;6.698;2023-07-24T05:02:08;98172.91;;;17.92;99.36
9899;BME280;4988;49.238;6.698;2023-07-24T05:04:33;98176.66;;;18.01;99.19
9899;BME280;4988;49.238;6.698;2023-07-24T05:06:59;98176.66;;;18.11;99.20
9899;BME280;4988;49.238;6.698;2023-07-24T05:09:24;98176.09;;;18.07;99.74
9899;BME280;4988;49.238;6.698;2023-07-24T05:11:49;98191.66;;;18.04;98.75
9899;BME280;4988;49.238;6.698;2023-07-24T05:14:15;98181.88;;;18.03;98.48
9899;BME280;4988;49.238;6.698;2023-07-24T05:16:40;98174.78;;;18.02;98.31
9899;BME280;4988;49.238;6.698;2023-07-24T05:19:05;98171.22;;;17.91;97.65
9899;BME280;4988;49.238;6.698;2023-07-24T05:21:31;98192.88;;;17.80;98.74
9899;BME280;4988;49.238;6.698;2023-07-24T05:23:56;98201.25;;;17.67;99.85
9899;BME280;4988;49.238;6.698;2023-07-24T05:26:21;98199.81;;;17.53;100.00
9899;BME280;4988;49.238;6.698;2023-07-24T05:28:47;98210.50;;;17.33;100.00
9899;BME280;4988;49.238;6.698;2023-07-24T05:31:12;98214.84;;;17.15;100.00
9899;BME280;4988;49.238;6.698;2023-07-24T05:33:38;98209.69;;;17.02;100.00
9899;BME280;4988;49.238;6.698;2023-07-24T05:36:03;98197.69;;;17.06;100.00
9899;BME280;4988;49.238;6.698;2023-07-24T05:38:29;98201.34;;;17.05;100.00
9899;BME280;4988;49.238;6.698;2023-07-24T05:40:59;98196.72;;;17.17;100.00
9899;BME280;4988;49.238;6.698;2023-07-24T05:43:25;98198.22;;;17.41;100.00
9899;BME280;4988;49.238;6.698;2023-07-24T05:45:51;98204.34;;;17.62;100.00
9899;BME280;4988;49.238;6.698;2023-07-24T05:48:17;98204.94;;;17.76;100.00
9899;BME280;4988;49.238;6.698;2023-07-24T05:50:42;98202.53;;;17.92;100.00
9899;BME280;4988;49.238;6.698;2023-07-24T05:53:07;98206.84;;;18.05;100.00
9899;BME280;4988;49.238;6.698;2023-07-24T05:55:33;98208.09;;;18.10;99.97
9899;BME280;4988;49.238;6.698;2023-07-24T05:57:58;98209.53;;;18.14;98.63
9899;BME280;4988;49.238;6.698;2023-07-24T06:00:23;98218.31;;;18.26;98.60
9899;BME280;4988;49.238;6.698;2023-07-24T06:02:48;98216.75;;;18.33;98.04
9899;BME280;4988;49.238;6.698;2023-07-24T06:05:14;98231.19;;;18.42;97.12
9899;BME280;4988;49.238;6.698;2023-07-24T06:07:39;98223.97;;;18.53;97.40
9899;BME280;4988;49.238;6.698;2023-07-24T06:10:05;98220.53;;;18.60;97.02
9899;BME280;4988;49.238;6.698;2023-07-24T06:12:30;98219.09;;;18.66;96.53
9899;BME280;4988;49.238;6.698;2023-07-24T06:14:55;98223.47;;;18.77;96.24
9899;BME280;4988;49.238;6.698;2023-07-24T06:17:21;98209.41;;;18.83;96.04
9899;BME280;4988;49.238;6.698;2023-07-24T06:19:46;98213.66;;;18.95;95.75
9899;BME280;4988;49.238;6.698;2023-07-24T06:22:11;98216.47;;;19.04;94.84
9899;BME280;4988;49.238;6.698;2023-07-24T06:24:37;98222.66;;;19.14;94.65
9899;BME280;4988;49.238;6.698;2023-07-24T06:27:03;98229.72;;;19.25;93.71
9899;BME280;4988;49.238;6.698;2023-07-24T06:29:31;98232.22;;;19.36;93.13
9899;BME280;4988;49.238;6.698;2023-07-24T06:31:57;98223.53;;;19.42;90.94
9899;BME280;4988;49.238;6.698;2023-07-24T06:34:22;98217.53;;;19.49;89.72
9899;BME280;4988;49.238;6.698;2023-07-24T06:36:47;98230.53;;;19.63;89.65
9899;BME280;4988;49.238;6.698;2023-07-24T06:39:13;98220.66;;;19.72;87.56
9899;BME280;4988;49.238;6.698;2023-07-24T06:41:38;98211.66;;;19.81;85.42
9899;BME280;4988;49.238;6.698;2023-07-24T06:44:03;98212.19;;;19.95;84.90
9899;BME280;4988;49.238;6.698;2023-07-24T06:46:29;98207.31;;;19.98;84.51
9899;BME280;4988;49.238;6.698;2023-07-24T06:48:54;98195.03;;;20.04;83.84
9899;BME280;4988;49.238;6.698;2023-07-24T06:51:19;98193.13;;;20.14;83.00
9899;BME280;4988;49.238;6.698;2023-07-24T06:53:45;98185.75;;;20.06;81.77
9899;BME280;4988;49.238;6.698;2023-07-24T06:56:10;98205.69;;;20.05;82.54
9899;BME280;4988;49.238;6.698;2023-07-24T06:58:35;98198.44;;;20.06;81.79
9899;BME280;4988;49.238;6.698;2023-07-24T07:01:05;98186.63;;;20.07;81.92
9899;BME280;4988;49.238;6.698;2023-07-24T07:03:31;98182.59;;;20.11;81.43
9899;BME280;4988;49.238;6.698;2023-07-24T07:05:59;98175.56;;;20.18;81.43
9899;BME280;4988;49.238;6.698;2023-07-24T07:08:25;98185.91;;;20.23;80.89
9899;BME280;4988;49.238;6.698;2023-07-24T07:10:57;98190.38;;;20.32;81.20
9899;BME280;4988;49.238;6.698;2023-07-24T07:13:23;98179.56;;;20.32;81.40
9899;BME280;4988;49.238;6.698;2023-07-24T07:15:48;98180.97;;;20.36;81.68
9899;BME280;4988;49.238;6.698;2023-07-24T07:18:13;98180.09;;;20.36;81.89
9899;BME280;4988;49.238;6.698;2023-07-24T07:20:44;98184.13;;;20.32;81.05
9899;BME280;4988;49.238;6.698;2023-07-24T07:23:10;98192.16;;;20.23;80.82
9899;BME280;4988;49.238;6.698;2023-07-24T07:25:35;98192.31;;;20.22;80.80
9899;BME280;4988;49.238;6.698;2023-07-24T07:28:00;98197.28;;;20.27;79.56
9899;BME280;4988;49.238;6.698;2023-07-24T07:30:26;98208.38;;;20.23;80.42
9899;BME280;4988;49.238;6.698;2023-07-24T07:32:51;98185.84;;;20.33;79.89
9899;BME280;4988;49.238;6.698;2023-07-24T07:35:16;98184.34;;;20.38;80.35
9899;BME280;4988;49.238;6.698;2023-07-24T07:37:42;98202.19;;;20.31;79.79
9899;BME280;4988;49.238;6.698;2023-07-24T07:40:07;98203.13;;;20.22;79.73
9899;BME280;4988;49.238;6.698;2023-07-24T07:42:33;98190.78;;;20.19;80.30
9899;BME280;4988;49.238;6.698;2023-07-24T07:44:58;98181.50;;;20.22;80.97
9899;BME280;4988;49.238;6.698;2023-07-24T07:47:23;98161.00;;;20.37;80.98
9899;BME280;4988;49.238;6.698;2023-07-24T07:49:49;98159.06;;;20.48;81.70
9899;BME280;4988;49.238;6.698;2023-07-24T07:52:14;98154.88;;;20.53;84.17
9899;BME280;4988;49.238;6.698;2023-07-24T07:54:46;98170.09;;;20.54;83.93
9899;BME280;4988;49.238;6.698;2023-07-24T07:57:11;98184.66;;;20.35;86.53
9899;BME280;4988;49.238;6.698;2023-07-24T07:59:36;98171.25;;;20.25;87.40
9899;BME280;4988;49.238;6.698;2023-07-24T08:02:02;98158.25;;;20.29;86.90
9899;BME280;4988;49.238;6.698;2023-07-24T08:04:27;98163.31;;;20.24;88.13
9899;BME280;4988;49.238;6.698;2023-07-24T08:06:52;98166.94;;;20.15;89.39
9899;BME280;4988;49.238;6.698;2023-07-24T08:09:18;98174.81;;;20.08;89.84
9899;BME280;4988;49.238;6.698;2023-07-24T08:11:43;98160.53;;;20.16;90.37
9899;BME280;4988;49.238;6.698;2023-07-24T08:14:08;98161.59;;;20.23;89.97
9899;BME280;4988;49.238;6.698;2023-07-24T08:16:33;98174.56;;;20.19;90.21
9899;BME280;4988;49.238;6.698;2023-07-24T08:18:59;98184.50;;;20.19;89.39
9899;BME280;4988;49.238;6.698;2023-07-24T08:21:24;98171.63;;;20.13;88.62
9899;BME280;4988;49.238;6.698;2023-07-24T08:23:50;98164.94;;;20.17;88.77
9899;BME280;4988;49.238;6.698;2023-07-24T08:26:15;98153.25;;;20.16;88.05
9899;BME280;4988;49.238;6.698;2023-07-24T08:28:40;98162.69;;;20.12;89.71
9899;BME280;4988;49.238;6.698;2023-07-24T08:31:07;98160.53;;;19.98;91.53
9899;BME280;4988;49.238;6.698;2023-07-24T08:33:33;98154.28;;;19.97;92.59
9899;BME280;4988;49.238;6.698;2023-07-24T08:36:00;98148.47;;;20.10;92.15
9899;BME280;4988;49.238;6.698;2023-07-24T09:44:26;98097.69;;;22.99;68.46
9899;BME280;4988;49.238;6.698;2023-07-24T09:47:25;98100.13;;;22.86;69.78
9899;BME280;4988;49.238;6.698;2023-07-24T09:58:28;98113.78;;;22.28;71.46
9899;BME280;4988;49.238;6.698;2023-07-24T10:04:40;98101.56;;;22.32;71.55
9899;BME280;4988;49.238;6.698;2023-07-24T10:14:28;98113.13;;;21.93;74.16
9899;BME280;4988;49.238;6.698;2023-07-24T10:17:41;98109.75;;;21.91;73.26
9899;BME280;4988;49.238;6.698;2023-07-24T10:20:19;98106.69;;;21.94;73.51
9899;BME280;4988;49.238;6.698;2023-07-24T10:22:45;98089.75;;;21.92;72.73
9899;BME280;4988;49.238;6.698;2023-07-24T10:25:29;98106.50;;;22.12;75.18
9899;BME280;4988;49.238;6.698;2023-07-24T11:38:22;98111.44;;;19.84;100.00
9899;BME280;4988;49.238;6.698;2023-07-24T11:40:49;98110.69;;;19.92;100.00
9899;BME280;4988;49.238;6.698;2023-07-24T11:43:16;98110.81;;;19.90;100.00
9899;BME280;4988;49.238;6.698;2023-07-24T11:45:42;98113.34;;;19.74;100.00
9899;BME280;4988;49.238;6.698;2023-07-24T11:48:12;98111.38;;;19.76;100.00
9899;BME280;4988;49.238;6.698;2023-07-24T11:50:43;98118.13;;;19.80;100.00
9899;BME280;4988;49.238;6.698;2023-07-24T11:53:19;98109.78;;;19.83;100.00
9899;BME280;4988;49.238;6.698;2023-07-24T11:55:45;98106.66;;;20.14;100.00
9899;BME280;4988;49.238;6.698;2023-07-24T11:58:14;98108.53;;;20.22;100.00
9899;BME280;4988;49.238;6.698;2023-07-24T12:00:40;98097.91;;;20.20;100.00
9899;BME280;4988;49.238;6.698;2023-07-24T12:03:06;98094.41;;;20.28;100.00
9899;BME280;4988;49.238;6.698;2023-07-24T12:05:40;98100.13;;;20.51;100.00
9899;BME280;4988;49.238;6.698;2023-07-24T12:08:06;98089.94;;;20.71;100.00
9899;BME280;4988;49.238;6.698;2023-07-24T12:10:36;98084.44;;;20.89;100.00
9899;BME280;4988;49.238;6.698;2023-07-24T12:13:01;98088.22;;;21.05;100.00
9899;BME280;4988;49.238;6.698;2023-07-24T12:15:27;98081.13;;;21.12;100.00
9899;BME280;4988;49.238;6.698;2023-07-24T12:17:52;98085.22;;;21.25;100.00
9899;BME280;4988;49.238;6.698;2023-07-24T12:20:18;98069.03;;;21.49;100.00
9899;BME280;4988;49.238;6.698;2023-07-24T12:22:43;98064.81;;;21.55;95.43
9899;BME280;4988;49.238;6.698;2023-07-24T12:25:09;98072.31;;;21.61;94.81
9899;BME280;4988;49.238;6.698;2023-07-24T12:27:34;98068.75;;;21.61;95.11
9899;BME280;4988;49.238;6.698;2023-07-24T12:30:00;98067.41;;;21.65;96.41
9899;BME280;4988;49.238;6.698;2023-07-24T12:32:25;98053.84;;;21.57;93.70
9899;BME280;4988;49.238;6.698;2023-07-24T12:34:52;98052.97;;;21.48;91.87
9899;BME280;4988;49.238;6.698;2023-07-24T12:37:18;98059.94;;;21.59;94.09
9899;BME280;4988;49.238;6.698;2023-07-24T12:39:45;98049.63;;;21.71;94.20
9899;BME280;4988;49.238;6.698;2023-07-24T12:42:10;98048.44;;;21.65;91.00
9899;BME280;4988;49.238;6.698;2023-07-24T12:44:36;98041.16;;;21.82;89.25
9899;BME280;4988;49.238;6.698;2023-07-24T12:47:01;98034.53;;;22.01;89.40
9899;BME280;4988;49.238;6.698;2023-07-24T12:49:26;98041.31;;;22.05;85.12
9899;BME280;4988;49.238;6.698;2023-07-24T12:51:52;98036.91;;;22.12;85.81
9899;BME280;4988;49.238;6.698;2023-07-24T12:54:17;98034.81;;;22.31;87.34
9899;BME280;4988;49.238;6.698;2023-07-24T12:56:45;98033.84;;;22.15;85.02
9899;BME280;4988;49.238;6.698;2023-07-24T12:59:11;98040.44;;;22.13;85.99
9899;BME280;4988;49.238;6.698;2023-07-24T13:01:36;98026.91;;;22.05;86.55
9899;BME280;4988;49.238;6.698;2023-07-24T13:04:01;98036.25;;;21.85;89.01
9899;BME280;4988;49.238;6.698;2023-07-24T13:06:27;98054.19;;;21.78;89.92
9899;BME280;4988;49.238;6.698;2023-07-24T13:08:52;98059.97;;;21.67;90.72
9899;BME280;4988;49.238;6.698;2023-07-24T13:11:17;98056.88;;;21.53;91.87
9899;BME280;4988;49.238;6.698;2023-07-24T13:13:43;98062.56;;;21.26;93.42
9899;BME280;4988;49.238;6.698;2023-07-24T13:16:08;98061.16;;;21.05;91.93
9899;BME280;4988;49.238;6.698;2023-07-24T13:18:34;98055.44;;;21.08;90.54
9899;BME280;4988;49.238;6.698;2023-07-24T13:20:59;98052.91;;;21.23;88.64
9899;BME280;4988;49.238;6.698;2023-07-24T13:23:25;98030.78;;;21.44;86.06
9899;BME280;4988;49.238;6.698;2023-07-24T13:25:52;98038.22;;;21.34;84.47
9899;BME280;4988;49.238;6.698;2023-07-24T13:28:18;98049.06;;;21.34;84.88
9899;BME280;4988;49.238;6.698;2023-07-24T13:30:43;98046.00;;;21.29;84.56
9899;BME280;4988;49.238;6.698;2023-07-24T13:33:09;98046.16;;;21.19;84.99
9899;BME280;4988;49.238;6.698;2023-07-24T13:35:34;98052.38;;;21.03;84.16
9899;BME280;4988;49.238;6.698;2023-07-24T13:38:00;98043.22;;;20.96;84.58
9899;BME280;4988;49.238;6.698;2023-07-24T13:40:25;98036.13;;;21.11;84.46
9899;BME280;4988;49.238;6.698;2023-07-24T13:42:51;98032.47;;;21.37;83.44
9899;BME280;4988;49.238;6.698;2023-07-24T13:45:16;98028.25;;;21.43;81.68
9899;BME280;4988;49.238;6.698;2023-07-24T13:47:42;98029.09;;;21.43;82.98
9899;BME280;4988;49.238;6.698;2023-07-24T13:50:07;98020.47;;;21.31;79.46
9899;BME280;4988;49.238;6.698;2023-07-24T13:52:33;98022.00;;;21.42;81.56
9899;BME280;4988;49.238;6.698;2023-07-24T13:54:58;98028.06;;;21.44;81.37
9899;BME280;4988;49.238;6.698;2023-07-24T13:57:24;98037.22;;;21.51;80.08
9899;BME280;4988;49.238;6.698;2023-07-24T13:59:49;98022.03;;;21.59;76.59
9899;BME280;4988;49.238;6.698;2023-07-24T14:02:14;98015.44;;;21.69;73.78
9899;BME280;4988;49.238;6.698;2023-07-24T14:04:40;98018.66;;;21.73;72.56
9899;BME280;4988;49.238;6.698;2023-07-24T14:07:05;98023.03;;;21.66;72.76
9899;BME280;4988;49.238;6.698;2023-07-24T14:09:31;98024.38;;;21.62;72.60
9899;BME280;4988;49.238;6.698;2023-07-24T14:11:58;98012.69;;;21.45;72.21
9899;BME280;4988;49.238;6.698;2023-07-24T14:14:23;98017.09;;;21.37;72.52
9899;BME280;4988;49.238;6.698;2023-07-24T14:16:50;98017.25;;;21.44;72.95
9899;BME280;4988;49.238;6.698;2023-07-24T14:19:15;98021.53;;;21.63;71.34
9899;BME280;4988;49.238;6.698;2023-07-24T14:21:41;98005.75;;;21.75;70.37
9899;BME280;4988;49.238;6.698;2023-07-24T14:24:06;98017.38;;;22.17;68.78
9899;BME280;4988;49.238;6.698;2023-07-24T14:26:32;98005.50;;;22.35;66.98
9899;BME280;4988;49.238;6.698;2023-07-24T14:28:57;98000.56;;;22.38;65.78
9899;BME280;4988;49.238;6.698;2023-07-24T14:31:23;98002.63;;;22.20;65.21
9899;BME280;4988;49.238;6.698;2023-07-24T14:33:48;97991.13;;;22.17;64.67
9899;BME280;4988;49.238;6.698;2023-07-24T14:36:14;97980.75;;;22.38;64.81
9899;BME280;4988;49.238;6.698;2023-07-24T14:38:39;97982.25;;;22.48;65.14
9899;BME280;4988;49.238;6.698;2023-07-24T14:41:04;97980.44;;;22.72;62.93
9899;BME280;4988;49.238;6.698;2023-07-24T14:43:30;97979.44;;;22.73;61.09
9899;BME280;4988;49.238;6.698;2023-07-24T14:45:55;97974.56;;;22.92;59.16
9899;BME280;4988;49.238;6.698;2023-07-24T14:48:21;97973.84;;;22.98;59.53
9899;BME280;4988;49.238;6.698;2023-07-24T14:50:46;97971.81;;;23.00;59.42
9899;BME280;4988;49.238;6.698;2023-07-24T14:53:12;97969.09;;;23.00;58.57
9899;BME280;4988;49.238;6.698;2023-07-24T14:55:37;97975.09;;;22.87;59.19
9899;BME280;4988;49.238;6.698;2023-07-24T14:58:02;97981.53;;;22.63;59.82
9899;BME280;4988;49.238;6.698;2023-07-24T15:00:31;97991.22;;;22.49;60.63
9899;BME280;4988;49.238;6.698;2023-07-24T15:02:56;98001.13;;;22.73;59.70
9899;BME280;4988;49.238;6.698;2023-07-24T15:05:22;97986.53;;;22.74;57.56
9899;BME280;4988;49.238;6.698;2023-07-24T15:07:47;97984.97;;;22.80;55.87
9899;BME280;4988;49.238;6.698;2023-07-24T15:10:13;97992.56;;;22.93;56.30
9899;BME280;4988;49.238;6.698;2023-07-24T15:12:38;97971.41;;;23.11;53.35
9899;BME280;4988;49.238;6.698;2023-07-24T15:15:04;97979.97;;;23.47;53.56
9899;BME280;4988;49.238;6.698;2023-07-24T15:17:30;97973.69;;;23.69;50.29
9899;BME280;4988;49.238;6.698;2023-07-24T15:19:55;97974.03;;;23.66;48.66
9899;BME280;4988;49.238;6.698;2023-07-24T15:22:20;97987.78;;;23.88;48.41
9899;BME280;4988;49.238;6.698;2023-07-24T15:24:48;97979.38;;;23.98;47.10
9899;BME280;4988;49.238;6.698;2023-07-24T15:27:13;97993.94;;;24.05;48.13
9899;BME280;4988;49.238;6.698;2023-07-24T15:29:38;97987.31;;;23.84;47.29
9899;BME280;4988;49.238;6.698;2023-07-24T15:32:04;97999.84;;;23.70;48.40
9899;BME280;4988;49.238;6.698;2023-07-24T15:34:30;98004.81;;;23.43;48.13
9899;BME280;4988;49.238;6.698;2023-07-24T15:36:55;97999.50;;;23.27;49.02
9899;BME280;4988;49.238;6.698;2023-07-24T15:39:21;97995.94;;;23.26;49.08
9899;BME280;4988;49.238;6.698;2023-07-24T15:41:46;98012.34;;;23.33;49.61
9899;BME280;4988;49.238;6.698;2023-07-24T15:44:11;98006.59;;;23.74;48.08
9899;BME280;4988;49.238;6.698;2023-07-24T15:46:37;98027.19;;;23.92;48.22
9899;BME280;4988;49.238;6.698;2023-07-24T15:49:02;98012.00;;;23.98;47.81
9899;BME280;4988;49.238;6.698;2023-07-24T15:51:27;98022.38;;;23.56;48.75